sensor_id;sensor_type;location;lat;lon;timestamp;pressure;altitude;pressure_sealevel;temperature;humidity
77118;BME280;66072;50.238;19.228;2024-03-02T00:01:11;97886.16;;;5.35;100.00
77118;BME280;66072;50.238;19.228;2024-03-02T00:03:45;97885.42;;;5.27;100.00
77118;BME280;66072;50.238;19.228;2024-03-02T00:06:13;97885.67;;;5.20;100.00
77118;BME280;66072;50.238;19.228;2024-03-02T00:08:41;97889.52;;;5.12;100.00
77118;BME280;66072;50.238;19.228;2024-03-02T00:11:09;97887.70;;;5.05;100.00
77118;BME280;66072;50.238;19.228;2024-03-02T00:13:37;97890.81;;;4.99;100.00
77118;BME280;66072;50.238;19.228;2024-03-02T00:16:05;97887.45;;;4.92;100.00
77118;BME280;66072;50.238;19.228;2024-03-02T00:18:35;97888.35;;;4.86;100.00
77118;BME280;66072;50.238;19.228;2024-03-02T00:21:06;97897.02;;;4.80;100.00
77118;BME280;66072;50.238;19.228;2024-03-02T00:23:34;97898.23;;;4.73;100.00
77118;BME280;66072;50.238;19.228;2024-03-02T00:26:02;97891.21;;;4.65;100.00
77118;BME280;66072;50.238;19.228;2024-03-02T00:28:32;97895.98;;;4.59;100.00
77118;BME280;66072;50.238;19.228;2024-03-02T00:31:11;97894.28;;;4.54;100.00
77118;BME280;66072;50.238;19.228;2024-03-02T00:33:46;97896.14;;;4.48;100.00
77118;BME280;66072;50.238;19.228;2024-03-02T00:36:16;97892.09;;;4.43;100.00
77118;BME280;66072;50.238;19.228;2024-03-02T00:38:49;97889.48;;;4.40;100.00
77118;BME280;66072;50.238;19.228;2024-03-02T00:41:21;97886.08;;;4.40;100.00
77118;BME280;66072;50.238;19.228;2024-03-02T00:46:35;97889.25;;;4.53;100.00
77118;BME280;66072;50.238;19.228;2024-03-02T00:51:47;97885.57;;;4.62;100.00
77118;BME280;66072;50.238;19.228;2024-03-02T00:54:15;97883.91;;;4.66;100.00
77118;BME280;66072;50.238;19.228;2024-03-02T00:56:47;97886.14;;;4.70;100.00
77118;BME280;66072;50.238;19.228;2024-03-02T00:59:15;97888.38;;;4.74;100.00
77118;BME280;66072;50.238;19.228;2024-03-02T01:01:42;97887.59;;;4.77;100.00
77118;BME280;66072;50.238;19.228;2024-03-02T01:04:10;97887.66;;;4.81;100.00
77118;BME280;66072;50.238;19.228;2024-03-02T01:06:38;97885.52;;;4.84;100.00
77118;BME280;66072;50.238;19.228;2024-03-02T01:09:06;97884.45;;;4.86;100.00
77118;BME280;66072;50.238;19.228;2024-03-02T01:11:34;97885.11;;;4.86;100.00
77118;BME280;66072;50.238;19.228;2024-03-02T01:14:02;97880.23;;;4.85;100.00
77118;BME280;66072;50.238;19.228;2024-03-02T01:16:30;97882.44;;;4.84;100.00
77118;BME280;66072;50.238;19.228;2024-03-02T01:18:57;97878.20;;;4.85;100.00
77118;BME280;66072;50.238;19.228;2024-03-02T01:21:25;97874.68;;;4.83;100.00
77118;BME280;66072;50.238;19.228;2024-03-02T01:23:53;97876.73;;;4.83;100.00
77118;BME280;66072;50.238;19.228;2024-03-02T01:26:21;97869.84;;;4.81;100.00
77118;BME280;66072;50.238;19.228;2024-03-02T01:28:48;97871.61;;;4.80;100.00
77118;BME280;66072;50.238;19.228;2024-03-02T01:31:16;97867.04;;;4.80;100.00
77118;BME280;66072;50.238;19.228;2024-03-02T01:33:44;97864.18;;;4.79;100.00
77118;BME280;66072;50.238;19.228;2024-03-02T01:36:12;97860.64;;;4.78;100.00
77118;BME280;66072;50.238;19.228;2024-03-02T01:38:39;97854.42;;;4.77;100.00
77118;BME280;66072;50.238;19.228;2024-03-02T01:41:07;97853.16;;;4.74;100.00
77118;BME280;66072;50.238;19.228;2024-03-02T01:43:35;97853.95;;;4.70;100.00
77118;BME280;66072;50.238;19.228;2024-03-02T01:46:07;97853.55;;;4.67;100.00
77118;BME280;66072;50.238;19.228;2024-03-02T01:48:35;97850.35;;;4.61;100.00
77118;BME280;66072;50.238;19.228;2024-03-02T01:51:03;97850.36;;;4.55;100.00
77118;BME280;66072;50.238;19.228;2024-03-02T01:53:31;97854.44;;;4.50;100.00
77118;BME280;66072;50.238;19.228;2024-03-02T01:55:59;97853.35;;;4.42;100.00
77118;BME280;66072;50.238;19.228;2024-03-02T01:58:27;97850.88;;;4.34;100.00
77118;BME280;66072;50.238;19.228;2024-03-02T02:00:55;97846.11;;;4.29;100.00
77118;BME280;66072;50.238;19.228;2024-03-02T02:03:22;97840.82;;;4.26;100.00
77118;BME280;66072;50.238;19.228;2024-03-02T02:05:50;97841.21;;;4.24;100.00
77118;BME280;66072;50.238;19.228;2024-03-02T02:08:18;97841.48;;;4.21;100.00
77118;BME280;66072;50.238;19.228;2024-03-02T02:10:46;97838.38;;;4.17;100.00
77118;BME280;66072;50.238;19.228;2024-03-02T02:13:13;97836.63;;;4.14;100.00
77118;BME280;66072;50.238;19.228;2024-03-02T02:15:41;97836.23;;;4.10;100.00
77118;BME280;66072;50.238;19.228;2024-03-02T02:18:09;97836.17;;;4.07;100.00
77118;BME280;66072;50.238;19.228;2024-03-02T02:20:37;97836.20;;;4.06;100.00
77118;BME280;66072;50.238;19.228;2024-03-02T02:23:04;97840.92;;;4.07;100.00
77118;BME280;66072;50.238;19.228;2024-03-02T02:25:32;97835.86;;;4.05;100.00
77118;BME280;66072;50.238;19.228;2024-03-02T02:28:00;97832.65;;;4.05;100.00
77118;BME280;66072;50.238;19.228;2024-03-02T02:30:30;97830.12;;;4.05;100.00
77118;BME280;66072;50.238;19.228;2024-03-02T02:32:58;97825.55;;;4.05;100.00
77118;BME280;66072;50.238;19.228;2024-03-02T02:35:26;97825.01;;;4.07;100.00
77118;BME280;66072;50.238;19.228;2024-03-02T02:37:55;97826.88;;;4.06;100.00
77118;BME280;66072;50.238;19.228;2024-03-02T02:40:24;97829.61;;;4.06;100.00
77118;BME280;66072;50.238;19.228;2024-03-02T02:42:52;97829.09;;;4.06;100.00
77118;BME280;66072;50.238;19.228;2024-03-02T02:45:20;97831.77;;;4.07;100.00
77118;BME280;66072;50.238;19.228;2024-03-02T02:47:49;97829.23;;;4.07;100.00
77118;BME280;66072;50.238;19.228;2024-03-02T02:50:17;97833.14;;;4.07;100.00
77118;BME280;66072;50.238;19.228;2024-03-02T02:52:44;97832.95;;;4.07;100.00
77118;BME280;66072;50.238;19.228;2024-03-02T02:55:13;97831.07;;;4.08;100.00
77118;BME280;66072;50.238;19.228;2024-03-02T02:57:41;97834.98;;;4.07;100.00
77118;BME280;66072;50.238;19.228;2024-03-02T03:00:12;97829.39;;;4.07;100.00
77118;BME280;66072;50.238;19.228;2024-03-02T03:02:41;97828.69;;;4.08;100.00
77118;BME280;66072;50.238;19.228;2024-03-02T03:05:11;97827.35;;;4.07;100.00
77118;BME280;66072;50.238;19.228;2024-03-02T03:07:42;97828.59;;;4.06;100.00
77118;BME280;66072;50.238;19.228;2024-03-02T03:10:10;97829.44;;;4.05;100.00
77118;BME280;66072;50.238;19.228;2024-03-02T03:12:38;97827.41;;;4.05;100.00
77118;BME280;66072;50.238;19.228;2024-03-02T03:15:06;97829.44;;;4.05;100.00
77118;BME280;66072;50.238;19.228;2024-03-02T03:17:34;97835.98;;;4.07;100.00
77118;BME280;66072;50.238;19.228;2024-03-02T03:20:02;97836.48;;;4.08;100.00
77118;BME280;66072;50.238;19.228;2024-03-02T03:22:30;97834.44;;;4.08;100.00
77118;BME280;66072;50.238;19.228;2024-03-02T03:24:58;97833.52;;;4.10;100.00
77118;BME280;66072;50.238;19.228;2024-03-02T03:27:26;97831.96;;;4.11;100.00
77118;BME280;66072;50.238;19.228;2024-03-02T03:29:55;97829.73;;;4.13;100.00
77118;BME280;66072;50.238;19.228;2024-03-02T03:32:22;97827.87;;;4.12;100.00
77118;BME280;66072;50.238;19.228;2024-03-02T03:34:50;97833.15;;;4.11;100.00
77118;BME280;66072;50.238;19.228;2024-03-02T03:37:18;97835.88;;;4.10;100.00
77118;BME280;66072;50.238;19.228;2024-03-02T03:39:46;97836.54;;;4.11;100.00
77118;BME280;66072;50.238;19.228;2024-03-02T03:42:14;97838.67;;;4.13;100.00
77118;BME280;66072;50.238;19.228;2024-03-02T03:44:41;97837.23;;;4.16;100.00
77118;BME280;66072;50.238;19.228;2024-03-02T03:47:09;97832.56;;;4.19;100.00
77118;BME280;66072;50.238;19.228;2024-03-02T03:49:37;97832.82;;;4.21;100.00
77118;BME280;66072;50.238;19.228;2024-03-02T03:52:05;97830.06;;;4.23;100.00
77118;BME280;66072;50.238;19.228;2024-03-02T03:54:33;97826.98;;;4.24;100.00
77118;BME280;66072;50.238;19.228;2024-03-02T03:57:01;97825.51;;;4.28;100.00
77118;BME280;66072;50.238;19.228;2024-03-02T03:59:29;97818.65;;;4.31;100.00
77118;BME280;66072;50.238;19.228;2024-03-02T04:01:56;97815.88;;;4.33;100.00
77118;BME280;66072;50.238;19.228;2024-03-02T04:04:24;97817.92;;;4.33;100.00
77118;BME280;66072;50.238;19.228;2024-03-02T04:06:52;97812.50;;;4.33;100.00
77118;BME280;66072;50.238;19.228;2024-03-02T04:09:19;97814.05;;;4.32;100.00
77118;BME280;66072;50.238;19.228;2024-03-02T04:11:47;97823.21;;;4.31;100.00
77118;BME280;66072;50.238;19.228;2024-03-02T04:14:15;97825.41;;;4.31;100.00
77118;BME280;66072;50.238;19.228;2024-03-02T04:16:43;97826.27;;;4.30;100.00
77118;BME280;66072;50.238;19.228;2024-03-02T04:19:10;97824.45;;;4.30;100.00
77118;BME280;66072;50.238;19.228;2024-03-02T04:21:38;97825.28;;;4.30;100.00
77118;BME280;66072;50.238;19.228;2024-03-02T04:24:06;97825.96;;;4.30;100.00
77118;BME280;66072;50.238;19.228;2024-03-02T04:26:34;97827.79;;;4.31;100.00
77118;BME280;66072;50.238;19.228;2024-03-02T04:29:01;97832.62;;;4.34;100.00
77118;BME280;66072;50.238;19.228;2024-03-02T04:31:29;97826.10;;;4.36;100.00
77118;BME280;66072;50.238;19.228;2024-03-02T04:33:57;97831.59;;;4.40;100.00
77118;BME280;66072;50.238;19.228;2024-03-02T04:36:25;97832.98;;;4.44;100.00
77118;BME280;66072;50.238;19.228;2024-03-02T04:38:53;97830.80;;;4.48;100.00
77118;BME280;66072;50.238;19.228;2024-03-02T04:41:20;97829.16;;;4.51;100.00
77118;BME280;66072;50.238;19.228;2024-03-02T04:43:48;97827.20;;;4.55;100.00
77118;BME280;66072;50.238;19.228;2024-03-02T04:46:16;97823.88;;;4.58;100.00
77118;BME280;66072;50.238;19.228;2024-03-02T04:48:44;97824.13;;;4.60;100.00
77118;BME280;66072;50.238;19.228;2024-03-02T04:51:11;97826.95;;;4.63;100.00
77118;BME280;66072;50.238;19.228;2024-03-02T04:53:39;97829.95;;;4.64;100.00
77118;BME280;66072;50.238;19.228;2024-03-02T04:56:07;97837.21;;;4.64;100.00
77118;BME280;66072;50.238;19.228;2024-03-02T04:58:35;97835.82;;;4.65;100.00
77118;BME280;66072;50.238;19.228;2024-03-02T05:01:02;97834.97;;;4.65;100.00
77118;BME280;66072;50.238;19.228;2024-03-02T05:03:31;97834.33;;;4.65;100.00
77118;BME280;66072;50.238;19.228;2024-03-02T05:05:59;97834.91;;;4.63;100.00
77118;BME280;66072;50.238;19.228;2024-03-02T05:08:27;97833.05;;;4.62;100.00
77118;BME280;66072;50.238;19.228;2024-03-02T05:10:54;97833.26;;;4.62;100.00
77118;BME280;66072;50.238;19.228;2024-03-02T05:13:22;97842.75;;;4.61;100.00
77118;BME280;66072;50.238;19.228;2024-03-02T05:15:50;97842.75;;;4.61;100.00
77118;BME280;66072;50.238;19.228;2024-03-02T05:18:18;97843.59;;;4.61;100.00
77118;BME280;66072;50.238;19.228;2024-03-02T05:20:45;97846.94;;;4.62;100.00
77118;BME280;66072;50.238;19.228;2024-03-02T05:23:13;97852.63;;;4.64;100.00
77118;BME280;66072;50.238;19.228;2024-03-02T05:25:41;97855.31;;;4.65;100.00
77118;BME280;66072;50.238;19.228;2024-03-02T05:28:08;97859.16;;;4.66;100.00
77118;BME280;66072;50.238;19.228;2024-03-02T05:30:36;97855.41;;;4.68;100.00
77118;BME280;66072;50.238;19.228;2024-03-02T05:33:04;97858.19;;;4.70;100.00
77118;BME280;66072;50.238;19.228;2024-03-02T05:35:32;97861.67;;;4.72;100.00
77118;BME280;66072;50.238;19.228;2024-03-02T05:38:00;97863.33;;;4.74;100.00
77118;BME280;66072;50.238;19.228;2024-03-02T05:40:27;97863.92;;;4.76;100.00
77118;BME280;66072;50.238;19.228;2024-03-02T05:42:55;97865.90;;;4.78;100.00
77118;BME280;66072;50.238;19.228;2024-03-02T05:45:23;97861.94;;;4.80;100.00
77118;BME280;66072;50.238;19.228;2024-03-02T05:47:51;97864.00;;;4.84;100.00
77118;BME280;66072;50.238;19.228;2024-03-02T05:50:19;97867.07;;;4.89;100.00
77118;BME280;66072;50.238;19.228;2024-03-02T05:52:46;97871.66;;;4.93;100.00
77118;BME280;66072;50.238;19.228;2024-03-02T05:55:14;97871.33;;;4.98;100.00
77118;BME280;66072;50.238;19.228;2024-03-02T05:57:42;97876.57;;;5.03;100.00
77118;BME280;66072;50.238;19.228;2024-03-02T06:00:11;97881.02;;;5.07;100.00
77118;BME280;66072;50.238;19.228;2024-03-02T06:02:39;97879.71;;;5.11;100.00
77118;BME280;66072;50.238;19.228;2024-03-02T06:05:07;97883.13;;;5.15;100.00
77118;BME280;66072;50.238;19.228;2024-03-02T06:07:35;97881.63;;;5.19;100.00
77118;BME280;66072;50.238;19.228;2024-03-02T06:10:03;97886.73;;;5.23;100.00
77118;BME280;66072;50.238;19.228;2024-03-02T06:12:31;97885.91;;;5.27;100.00
77118;BME280;66072;50.238;19.228;2024-03-02T06:14:59;97883.04;;;5.32;100.00
77118;BME280;66072;50.238;19.228;2024-03-02T06:17:27;97884.17;;;5.38;100.00
77118;BME280;66072;50.238;19.228;2024-03-02T06:19:55;97886.13;;;5.46;100.00
77118;BME280;66072;50.238;19.228;2024-03-02T06:22:23;97890.86;;;5.56;100.00
77118;BME280;66072;50.238;19.228;2024-03-02T06:24:51;97889.71;;;5.64;100.00
77118;BME280;66072;50.238;19.228;2024-03-02T06:27:18;97887.88;;;5.73;100.00
77118;BME280;66072;50.238;19.228;2024-03-02T06:29:46;97883.30;;;5.82;100.00
77118;BME280;66072;50.238;19.228;2024-03-02T06:32:14;97887.70;;;5.91;100.00
77118;BME280;66072;50.238;19.228;2024-03-02T06:34:42;97888.39;;;6.01;100.00
77118;BME280;66072;50.238;19.228;2024-03-02T06:37:09;97888.73;;;6.10;100.00
77118;BME280;66072;50.238;19.228;2024-03-02T06:39:37;97888.07;;;6.19;100.00
77118;BME280;66072;50.238;19.228;2024-03-02T06:42:05;97886.49;;;6.29;100.00
77118;BME280;66072;50.238;19.228;2024-03-02T06:44:33;97888.15;;;6.38;100.00
77118;BME280;66072;50.238;19.228;2024-03-02T06:47:01;97891.27;;;6.50;100.00
77118;BME280;66072;50.238;19.228;2024-03-02T06:49:29;97893.25;;;6.60;100.00
77118;BME280;66072;50.238;19.228;2024-03-02T06:51:57;97890.50;;;6.69;100.00
77118;BME280;66072;50.238;19.228;2024-03-02T06:54:24;97882.41;;;6.80;100.00
77118;BME280;66072;50.238;19.228;2024-03-02T06:56:52;97881.44;;;6.91;100.00
77118;BME280;66072;50.238;19.228;2024-03-02T06:59:20;97886.89;;;7.04;100.00
77118;BME280;66072;50.238;19.228;2024-03-02T07:01:48;97887.85;;;7.17;100.00
77118;BME280;66072;50.238;19.228;2024-03-02T07:04:15;97886.46;;;7.30;100.00
77118;BME280;66072;50.238;19.228;2024-03-02T07:06:43;97881.46;;;7.43;100.00
77118;BME280;66072;50.238;19.228;2024-03-02T07:09:11;97883.12;;;7.56;100.00
77118;BME280;66072;50.238;19.228;2024-03-02T07:11:39;97888.23;;;7.68;100.00
77118;BME280;66072;50.238;19.228;2024-03-02T07:14:07;97893.98;;;7.80;100.00
77118;BME280;66072;50.238;19.228;2024-03-02T07:16:37;97891.69;;;7.93;100.00
77118;BME280;66072;50.238;19.228;2024-03-02T07:19:04;97894.84;;;8.06;100.00
77118;BME280;66072;50.238;19.228;2024-03-02T07:21:32;97898.30;;;8.20;100.00
77118;BME280;66072;50.238;19.228;2024-03-02T07:24:00;97900.77;;;8.33;100.00
77118;BME280;66072;50.238;19.228;2024-03-02T07:26:29;97902.92;;;8.45;100.00
77118;BME280;66072;50.238;19.228;2024-03-02T07:29:00;97908.04;;;8.56;100.00
77118;BME280;66072;50.238;19.228;2024-03-02T07:31:28;97910.58;;;8.64;100.00
77118;BME280;66072;50.238;19.228;2024-03-02T07:33:56;97910.41;;;8.72;100.00
77118;BME280;66072;50.238;19.228;2024-03-02T07:36:24;97914.58;;;8.80;100.00
77118;BME280;66072;50.238;19.228;2024-03-02T07:38:52;97911.31;;;8.88;100.00
77118;BME280;66072;50.238;19.228;2024-03-02T07:41:19;97917.64;;;8.98;100.00
77118;BME280;66072;50.238;19.228;2024-03-02T07:43:47;97920.62;;;9.07;100.00
77118;BME280;66072;50.238;19.228;2024-03-02T07:46:15;97919.70;;;9.19;100.00
77118;BME280;66072;50.238;19.228;2024-03-02T07:48:43;97920.48;;;9.30;100.00
77118;BME280;66072;50.238;19.228;2024-03-02T07:51:10;97922.36;;;9.44;100.00
77118;BME280;66072;50.238;19.228;2024-03-02T07:53:38;97918.30;;;9.56;100.00
77118;BME280;66072;50.238;19.228;2024-03-02T07:56:06;97916.84;;;9.71;100.00
77118;BME280;66072;50.238;19.228;2024-03-02T07:58:34;97924.96;;;9.89;99.87
77118;BME280;66072;50.238;19.228;2024-03-02T08:01:01;97928.09;;;10.08;99.44
77118;BME280;66072;50.238;19.228;2024-03-02T08:03:29;97930.55;;;10.26;99.13
77118;BME280;66072;50.238;19.228;2024-03-02T08:05:57;97932.81;;;10.44;98.46
77118;BME280;66072;50.238;19.228;2024-03-02T08:08:25;97937.70;;;10.61;97.90
77118;BME280;66072;50.238;19.228;2024-03-02T08:10:53;97939.68;;;10.75;96.81
77118;BME280;66072;50.238;19.228;2024-03-02T08:13:20;97937.80;;;10.84;95.67
77118;BME280;66072;50.238;19.228;2024-03-02T08:15:48;97937.02;;;10.92;94.93
77118;BME280;66072;50.238;19.228;2024-03-02T08:18:16;97936.84;;;10.98;94.24
77118;BME280;66072;50.238;19.228;2024-03-02T08:20:44;97935.86;;;11.03;92.50
77118;BME280;66072;50.238;19.228;2024-03-02T08:23:12;97938.33;;;11.08;93.01
77118;BME280;66072;50.238;19.228;2024-03-02T08:25:40;97938.95;;;11.12;92.13
77118;BME280;66072;50.238;19.228;2024-03-02T08:28:08;97938.05;;;11.10;91.68
77118;BME280;66072;50.238;19.228;2024-03-02T08:30:36;97943.02;;;11.07;91.42
77118;BME280;66072;50.238;19.228;2024-03-02T08:33:04;97944.10;;;11.02;91.88
77118;BME280;66072;50.238;19.228;2024-03-02T08:35:32;97943.92;;;11.00;91.88
77118;BME280;66072;50.238;19.228;2024-03-02T08:38:00;97942.45;;;10.98;92.22
77118;BME280;66072;50.238;19.228;2024-03-02T08:40:28;97941.43;;;10.99;92.14
77118;BME280;66072;50.238;19.228;2024-03-02T08:42:56;97938.86;;;10.98;91.93
77118;BME280;66072;50.238;19.228;2024-03-02T08:45:24;97939.98;;;11.00;91.61
77118;BME280;66072;50.238;19.228;2024-03-02T08:47:52;97945.36;;;11.02;91.23
77118;BME280;66072;50.238;19.228;2024-03-02T08:50:19;97949.38;;;11.03;90.93
77118;BME280;66072;50.238;19.228;2024-03-02T08:52:47;97953.63;;;11.03;90.91
77118;BME280;66072;50.238;19.228;2024-03-02T08:55:15;97957.15;;;10.99;90.18
77118;BME280;66072;50.238;19.228;2024-03-02T08:57:43;97957.42;;;10.91;90.09
77118;BME280;66072;50.238;19.228;2024-03-02T09:00:11;97960.09;;;10.83;89.98
77118;BME280;66072;50.238;19.228;2024-03-02T09:02:39;97955.48;;;10.77;90.39
77118;BME280;66072;50.238;19.228;2024-03-02T09:05:07;97956.83;;;10.77;90.51
77118;BME280;66072;50.238;19.228;2024-03-02T09:07:35;97960.52;;;10.75;90.24
77118;BME280;66072;50.238;19.228;2024-03-02T09:10:03;97961.52;;;10.73;90.24
77118;BME280;66072;50.238;19.228;2024-03-02T09:12:31;97958.55;;;10.71;90.71
77118;BME280;66072;50.238;19.228;2024-03-02T09:15:00;97958.11;;;10.69;90.72
77118;BME280;66072;50.238;19.228;2024-03-02T09:17:28;97954.37;;;10.72;90.90
77118;BME280;66072;50.238;19.228;2024-03-02T09:19:56;97953.38;;;10.77;90.88
77118;BME280;66072;50.238;19.228;2024-03-02T09:22:24;97955.58;;;10.84;90.77
77118;BME280;66072;50.238;19.228;2024-03-02T09:24:52;97954.80;;;10.89;90.00
77118;BME280;66072;50.238;19.228;2024-03-02T09:27:19;97962.25;;;10.93;89.58
77118;BME280;66072;50.238;19.228;2024-03-02T09:29:48;97963.62;;;10.99;89.81
77118;BME280;66072;50.238;19.228;2024-03-02T09:32:15;97967.70;;;11.06;89.93
77118;BME280;66072;50.238;19.228;2024-03-02T09:34:43;97972.06;;;11.11;89.37
77118;BME280;66072;50.238;19.228;2024-03-02T09:37:11;97971.61;;;11.03;89.01
77118;BME280;66072;50.238;19.228;2024-03-02T09:39:39;97971.48;;;10.93;89.47
77118;BME280;66072;50.238;19.228;2024-03-02T09:42:07;97969.15;;;10.86;89.83
77118;BME280;66072;50.238;19.228;2024-03-02T09:44:35;97970.33;;;10.90;90.65
77118;BME280;66072;50.238;19.228;2024-03-02T09:47:03;97970.88;;;10.93;90.30
77118;BME280;66072;50.238;19.228;2024-03-02T09:49:30;97973.02;;;10.94;90.38
77118;BME280;66072;50.238;19.228;2024-03-02T09:51:58;97975.58;;;10.94;90.17
77118;BME280;66072;50.238;19.228;2024-03-02T09:54:26;97972.11;;;10.95;90.18
77118;BME280;66072;50.238;19.228;2024-03-02T09:56:54;97975.77;;;11.02;90.35
77118;BME280;66072;50.238;19.228;2024-03-02T09:59:22;97978.66;;;11.12;89.77
77118;BME280;66072;50.238;19.228;2024-03-02T10:02:00;97981.58;;;11.21;89.61
77118;BME280;66072;50.238;19.228;2024-03-02T10:04:30;97982.90;;;11.31;89.34
77118;BME280;66072;50.238;19.228;2024-03-02T10:09:38;97976.55;;;11.46;88.71
77118;BME280;66072;50.238;19.228;2024-03-02T10:12:08;97982.11;;;11.56;88.76
77118;BME280;66072;50.238;19.228;2024-03-02T10:14:37;97978.20;;;11.67;89.13
77118;BME280;66072;50.238;19.228;2024-03-02T10:17:13;97979.58;;;11.76;88.61
77118;BME280;66072;50.238;19.228;2024-03-02T10:19:41;97981.90;;;11.80;87.57
77118;BME280;66072;50.238;19.228;2024-03-02T10:22:10;97980.77;;;11.82;86.85
77118;BME280;66072;50.238;19.228;2024-03-02T10:24:39;97981.01;;;11.84;86.04
77118;BME280;66072;50.238;19.228;2024-03-02T10:27:25;97991.79;;;11.81;84.84
77118;BME280;66072;50.238;19.228;2024-03-02T10:29:54;97988.02;;;11.75;84.93
77118;BME280;66072;50.238;19.228;2024-03-02T10:32:22;97985.33;;;11.77;84.98
77118;BME280;66072;50.238;19.228;2024-03-02T10:34:50;97990.15;;;11.80;83.83
77118;BME280;66072;50.238;19.228;2024-03-02T10:37:18;97991.92;;;11.82;84.65
77118;BME280;66072;50.238;19.228;2024-03-02T10:39:48;97989.54;;;11.88;83.87
77118;BME280;66072;50.238;19.228;2024-03-02T10:42:18;97988.52;;;11.91;82.17
77118;BME280;66072;50.238;19.228;2024-03-02T10:44:48;97988.11;;;11.92;82.83
77118;BME280;66072;50.238;19.228;2024-03-02T10:47:19;97990.60;;;11.96;83.24
77118;BME280;66072;50.238;19.228;2024-03-02T10:49:49;97992.14;;;11.99;82.92
77118;BME280;66072;50.238;19.228;2024-03-02T10:52:18;97988.08;;;12.01;83.20
77118;BME280;66072;50.238;19.228;2024-03-02T10:54:46;97983.65;;;12.03;82.77
77118;BME280;66072;50.238;19.228;2024-03-02T10:57:16;97981.54;;;12.07;83.15
77118;BME280;66072;50.238;19.228;2024-03-02T10:59:52;97983.92;;;12.16;83.25
77118;BME280;66072;50.238;19.228;2024-03-02T11:02:21;97983.91;;;12.19;82.51
77118;BME280;66072;50.238;19.228;2024-03-02T11:04:54;97978.10;;;12.16;82.66
77118;BME280;66072;50.238;19.228;2024-03-02T11:07:22;97978.46;;;12.12;82.53
77118;BME280;66072;50.238;19.228;2024-03-02T11:09:57;97976.88;;;12.10;83.26
77118;BME280;66072;50.238;19.228;2024-03-02T11:12:36;97975.88;;;12.13;83.38
77118;BME280;66072;50.238;19.228;2024-03-02T11:15:11;97974.04;;;12.14;83.78
77118;BME280;66072;50.238;19.228;2024-03-02T11:17:43;97975.69;;;12.18;83.81
77118;BME280;66072;50.238;19.228;2024-03-02T11:20:11;97971.66;;;12.20;83.60
77118;BME280;66072;50.238;19.228;2024-03-02T11:22:39;97970.93;;;12.21;83.03
77118;BME280;66072;50.238;19.228;2024-03-02T11:25:23;97969.89;;;12.18;82.69
77118;BME280;66072;50.238;19.228;2024-03-02T11:33:04;97961.94;;;12.27;83.24
77118;BME280;66072;50.238;19.228;2024-03-02T11:35:36;97961.77;;;12.27;82.90
77118;BME280;66072;50.238;19.228;2024-03-02T11:38:06;97959.98;;;12.25;83.37
77118;BME280;66072;50.238;19.228;2024-03-02T11:40:34;97959.86;;;12.30;83.76
77118;BME280;66072;50.238;19.228;2024-03-02T11:43:02;97959.92;;;12.37;83.39
77118;BME280;66072;50.238;19.228;2024-03-02T11:45:32;97955.95;;;12.41;83.21
77118;BME280;66072;50.238;19.228;2024-03-02T11:48:00;97953.70;;;12.47;83.62
77118;BME280;66072;50.238;19.228;2024-03-02T11:50:51;97952.52;;;12.52;83.97
77118;BME280;66072;50.238;19.228;2024-03-02T11:53:20;97952.67;;;12.55;83.07
77118;BME280;66072;50.238;19.228;2024-03-02T11:55:49;97951.73;;;12.56;83.46
77118;BME280;66072;50.238;19.228;2024-03-02T11:58:17;97951.45;;;12.58;83.35
77118;BME280;66072;50.238;19.228;2024-03-02T12:00:44;97947.50;;;12.58;83.57
77118;BME280;66072;50.238;19.228;2024-03-02T12:03:14;97949.34;;;12.56;83.45
77118;BME280;66072;50.238;19.228;2024-03-02T12:05:42;97948.48;;;12.51;83.49
77118;BME280;66072;50.238;19.228;2024-03-02T12:08:11;97945.02;;;12.46;83.35
77118;BME280;66072;50.238;19.228;2024-03-02T12:10:40;97939.67;;;12.47;83.82
77118;BME280;66072;50.238;19.228;2024-03-02T12:13:07;97939.75;;;12.51;83.97
77118;BME280;66072;50.238;19.228;2024-03-02T12:15:36;97939.63;;;12.58;84.04
77118;BME280;66072;50.238;19.228;2024-03-02T12:18:05;97939.44;;;12.66;84.12
77118;BME280;66072;50.238;19.228;2024-03-02T12:20:33;97940.58;;;12.73;83.76
77118;BME280;66072;50.238;19.228;2024-03-02T12:23:02;97942.51;;;12.74;83.65
77118;BME280;66072;50.238;19.228;2024-03-02T12:25:31;97937.08;;;12.79;84.61
77118;BME280;66072;50.238;19.228;2024-03-02T12:28:00;97938.65;;;12.89;84.76
77118;BME280;66072;50.238;19.228;2024-03-02T12:30:30;97940.16;;;13.01;84.81
77118;BME280;66072;50.238;19.228;2024-03-02T12:32:59;97941.23;;;13.08;84.03
77118;BME280;66072;50.238;19.228;2024-03-02T12:35:27;97936.77;;;13.08;83.59
77118;BME280;66072;50.238;19.228;2024-03-02T12:37:55;97934.73;;;13.10;83.82
77118;BME280;66072;50.238;19.228;2024-03-02T12:40:23;97936.20;;;13.19;83.79
77118;BME280;66072;50.238;19.228;2024-03-02T12:42:51;97932.91;;;13.23;83.03
77118;BME280;66072;50.238;19.228;2024-03-02T12:45:20;97931.33;;;13.20;82.98
77118;BME280;66072;50.238;19.228;2024-03-02T12:47:48;97932.02;;;13.15;82.17
77118;BME280;66072;50.238;19.228;2024-03-02T12:50:15;97928.50;;;13.01;81.63
77118;BME280;66072;50.238;19.228;2024-03-02T12:52:43;97924.41;;;12.81;81.86
77118;BME280;66072;50.238;19.228;2024-03-02T12:55:11;97923.48;;;12.61;82.64
77118;BME280;66072;50.238;19.228;2024-03-02T12:57:39;97924.52;;;12.42;83.55
77118;BME280;66072;50.238;19.228;2024-03-02T13:00:11;97923.05;;;12.21;83.19
77118;BME280;66072;50.238;19.228;2024-03-02T13:02:40;97922.27;;;12.01;84.19
77118;BME280;66072;50.238;19.228;2024-03-02T13:05:08;97921.56;;;11.81;84.85
77118;BME280;66072;50.238;19.228;2024-03-02T13:07:37;97917.02;;;11.65;85.95
77118;BME280;66072;50.238;19.228;2024-03-02T13:10:08;97918.27;;;11.50;86.87